sensor_id;sensor_type;location;lat;lon;timestamp;pressure;altitude;pressure_sealevel;temperature;humidity
70053;BME280;57398;52.032;4.376;2023-02-11T00:02:40;103569.53;;;6.16;nan
70053;BME280;57398;52.032;4.376;2023-02-11T00:05:31;103576.72;;;6.12;nan
70053;BME280;57398;52.032;4.376;2023-02-11T00:08:19;103562.06;;;6.13;nan
70053;BME280;57398;52.032;4.376;2023-02-11T00:11:11;103554.44;;;6.11;nan
70053;BME280;57398;52.032;4.376;2023-02-11T00:14:02;103545.13;;;6.20;nan
70053;BME280;57398;52.032;4.376;2023-02-11T00:16:51;103552.06;;;6.19;nan
70053;BME280;57398;52.032;4.376;2023-02-11T00:19:40;103550.88;;;6.23;nan
70053;BME280;57398;52.032;4.376;2023-02-11T00:22:28;103560.38;;;6.23;nan
70053;BME280;57398;52.032;4.376;2023-02-11T00:25:16;103560.25;;;6.24;nan
70053;BME280;57398;52.032;4.376;2023-02-11T00:28:04;103558.25;;;6.28;nan
70053;BME280;57398;52.032;4.376;2023-02-11T00:30:53;103558.44;;;6.36;nan
70053;BME280;57398;52.032;4.376;2023-02-11T00:33:43;103537.69;;;6.38;nan
70053;BME280;57398;52.032;4.376;2023-02-11T00:36:32;103533.91;;;6.42;nan
70053;BME280;57398;52.032;4.376;2023-02-11T00:39:20;103538.63;;;6.37;nan
70053;BME280;57398;52.032;4.376;2023-02-11T00:42:12;103532.63;;;6.36;nan
70053;BME280;57398;52.032;4.376;2023-02-11T00:47:49;103531.00;;;6.35;nan
70053;BME280;57398;52.032;4.376;2023-02-11T00:50:39;103536.28;;;6.34;nan
70053;BME280;57398;52.032;4.376;2023-02-11T00:56:15;103538.75;;;6.35;nan
70053;BME280;57398;52.032;4.376;2023-02-11T00:59:03;103546.50;;;6.35;nan
70053;BME280;57398;52.032;4.376;2023-02-11T01:01:51;103550.09;;;6.44;nan
70053;BME280;57398;52.032;4.376;2023-02-11T01:04:39;103550.34;;;6.41;nan
70053;BME280;57398;52.032;4.376;2023-02-11T01:07:29;103553.72;;;6.41;nan
70053;BME280;57398;52.032;4.376;2023-02-11T01:10:17;103541.34;;;6.35;nan
70053;BME280;57398;52.032;4.376;2023-02-11T01:13:05;103532.78;;;6.35;nan
70053;BME280;57398;52.032;4.376;2023-02-11T01:15:54;103536.66;;;6.29;nan
70053;BME280;57398;52.032;4.376;2023-02-11T01:21:31;103538.47;;;6.17;nan
70053;BME280;57398;52.032;4.376;2023-02-11T01:24:20;103535.44;;;6.12;nan
70053;BME280;57398;52.032;4.376;2023-02-11T01:27:09;103551.50;;;6.04;nan
70053;BME280;57398;52.032;4.376;2023-02-11T01:29:57;103536.97;;;6.03;nan
70053;BME280;57398;52.032;4.376;2023-02-11T01:32:45;103539.09;;;5.98;nan
70053;BME280;57398;52.032;4.376;2023-02-11T01:35:33;103542.25;;;5.91;nan
70053;BME280;57398;52.032;4.376;2023-02-11T01:38:24;103529.00;;;5.84;nan
70053;BME280;57398;52.032;4.376;2023-02-11T01:41:14;103534.53;;;5.79;nan
70053;BME280;57398;52.032;4.376;2023-02-11T01:44:22;103530.78;;;5.72;nan
70053;BME280;57398;52.032;4.376;2023-02-11T01:47:10;103519.91;;;5.57;nan
70053;BME280;57398;52.032;4.376;2023-02-11T01:49:59;103505.84;;;5.61;nan
70053;BME280;57398;52.032;4.376;2023-02-11T01:52:49;103507.94;;;5.56;nan
70053;BME280;57398;52.032;4.376;2023-02-11T01:58:46;103504.00;;;5.41;nan
70053;BME280;57398;52.032;4.376;2023-02-11T02:01:36;103509.25;;;5.51;nan
70053;BME280;57398;52.032;4.376;2023-02-11T02:07:24;103496.72;;;5.46;nan
70053;BME280;57398;52.032;4.376;2023-02-11T02:10:18;103493.53;;;5.42;nan
70053;BME280;57398;52.032;4.376;2023-02-11T02:13:08;103487.13;;;5.37;nan
70053;BME280;57398;52.032;4.376;2023-02-11T02:15:58;103494.38;;;5.32;nan
70053;BME280;57398;52.032;4.376;2023-02-11T02:18:53;103477.28;;;5.31;nan
70053;BME280;57398;52.032;4.376;2023-02-11T02:22:21;103473.88;;;5.30;nan
70053;BME280;57398;52.032;4.376;2023-02-11T02:25:31;103465.34;;;5.18;nan
70053;BME280;57398;52.032;4.376;2023-02-11T02:28:44;103464.16;;;5.22;nan
70053;BME280;57398;52.032;4.376;2023-02-11T02:31:52;103455.72;;;5.20;nan
70053;BME280;57398;52.032;4.376;2023-02-11T02:37:39;103455.94;;;5.17;nan
70053;BME280;57398;52.032;4.376;2023-02-11T02:40:31;103468.47;;;5.11;nan
70053;BME280;57398;52.032;4.376;2023-02-11T02:43:21;103462.88;;;5.06;nan
70053;BME280;57398;52.032;4.376;2023-02-11T02:46:13;103449.16;;;5.05;nan
70053;BME280;57398;52.032;4.376;2023-02-11T02:49:02;103446.13;;;5.00;nan
70053;BME280;57398;52.032;4.376;2023-02-11T02:52:03;103453.16;;;5.09;nan
70053;BME280;57398;52.032;4.376;2023-02-11T02:55:07;103452.81;;;5.02;nan
70053;BME280;57398;52.032;4.376;2023-02-11T02:58:07;103455.38;;;5.02;nan
70053;BME280;57398;52.032;4.376;2023-02-11T03:01:07;103429.25;;;4.96;nan
70053;BME280;57398;52.032;4.376;2023-02-11T03:04:05;103438.88;;;4.94;nan
70053;BME280;57398;52.032;4.376;2023-02-11T03:07:02;103430.22;;;4.95;nan
70053;BME280;57398;52.032;4.376;2023-02-11T03:09:57;103427.28;;;4.88;nan
70053;BME280;57398;52.032;4.376;2023-02-11T03:12:47;103428.09;;;4.77;nan
70053;BME280;57398;52.032;4.376;2023-02-11T03:18:28;103418.59;;;4.67;nan
70053;BME280;57398;52.032;4.376;2023-02-11T03:21:18;103425.94;;;4.60;nan
70053;BME280;57398;52.032;4.376;2023-02-11T03:24:13;103424.41;;;4.46;nan
70053;BME280;57398;52.032;4.376;2023-02-11T03:27:07;103428.84;;;4.44;nan
70053;BME280;57398;52.032;4.376;2023-02-11T03:30:00;103439.03;;;4.46;nan
70053;BME280;57398;52.032;4.376;2023-02-11T03:32:56;103423.81;;;4.43;nan
70053;BME280;57398;52.032;4.376;2023-02-11T03:35:50;103416.81;;;4.45;nan
70053;BME280;57398;52.032;4.376;2023-02-11T03:38:44;103409.63;;;4.37;nan
70053;BME280;57398;52.032;4.376;2023-02-11T03:41:36;103415.38;;;4.40;nan
70053;BME280;57398;52.032;4.376;2023-02-11T03:44:29;103404.03;;;4.43;nan
70053;BME280;57398;52.032;4.376;2023-02-11T04:32:18;103426.44;;;4.18;nan
70053;BME280;57398;52.032;4.376;2023-02-11T04:43:30;103425.72;;;4.52;nan
70053;BME280;57398;52.032;4.376;2023-02-11T04:49:09;103433.91;;;4.57;nan
70053;BME280;57398;52.032;4.376;2023-02-11T04:51:59;103436.94;;;4.62;nan
70053;BME280;57398;52.032;4.376;2023-02-11T04:54:47;103431.69;;;4.64;nan
70053;BME280;57398;52.032;4.376;2023-02-11T04:57:35;103428.41;;;4.61;nan
70053;BME280;57398;52.032;4.376;2023-02-11T05:00:23;103415.91;;;4.68;nan
70053;BME280;57398;52.032;4.376;2023-02-11T05:11:36;103427.38;;;4.75;nan
70053;BME280;57398;52.032;4.376;2023-02-11T05:14:26;103435.22;;;4.74;nan
70053;BME280;57398;52.032;4.376;2023-02-11T05:17:14;103423.75;;;4.78;nan
70053;BME280;57398;52.032;4.376;2023-02-11T05:20:02;103424.81;;;4.75;nan
70053;BME280;57398;52.032;4.376;2023-02-11T05:42:29;103480.78;;;5.07;nan
70053;BME280;57398;52.032;4.376;2023-02-11T05:48:05;103492.97;;;5.05;nan
70053;BME280;57398;52.032;4.376;2023-02-11T05:53:41;103493.56;;;5.09;nan
70053;BME280;57398;52.032;4.376;2023-02-11T06:02:07;103494.59;;;5.17;nan
70053;BME280;57398;52.032;4.376;2023-02-11T06:04:55;103490.03;;;5.21;nan
70053;BME280;57398;52.032;4.376;2023-02-11T06:07:44;103496.97;;;5.09;nan
70053;BME280;57398;52.032;4.376;2023-02-11T06:10:32;103496.13;;;5.20;nan
70053;BME280;57398;52.032;4.376;2023-02-11T06:24:33;103492.03;;;5.40;nan
70053;BME280;57398;52.032;4.376;2023-02-11T06:27:42;103497.44;;;5.37;nan
70053;BME280;57398;52.032;4.376;2023-02-11T06:30:32;103493.31;;;5.45;nan
70053;BME280;57398;52.032;4.376;2023-02-11T06:33:23;103503.28;;;5.39;nan
70053;BME280;57398;52.032;4.376;2023-02-11T06:36:20;103510.22;;;5.38;nan
70053;BME280;57398;52.032;4.376;2023-02-11T06:39:09;103504.56;;;5.33;nan
70053;BME280;57398;52.032;4.376;2023-02-11T06:41:58;103509.16;;;5.30;nan
70053;BME280;57398;52.032;4.376;2023-02-11T06:47:36;103519.44;;;5.18;nan
70053;BME280;57398;52.032;4.376;2023-02-11T06:50:24;103511.47;;;5.10;nan
70053;BME280;57398;52.032;4.376;2023-02-11T06:53:12;103515.81;;;5.10;nan
70053;BME280;57398;52.032;4.376;2023-02-11T06:56:02;103534.56;;;5.23;nan
70053;BME280;57398;52.032;4.376;2023-02-11T06:58:51;103544.50;;;5.16;nan
70053;BME280;57398;52.032;4.376;2023-02-11T07:01:40;103557.97;;;5.09;nan
70053;BME280;57398;52.032;4.376;2023-02-11T07:07:18;103570.84;;;5.20;nan
70053;BME280;57398;52.032;4.376;2023-02-11T07:10:06;103574.00;;;5.12;nan
70053;BME280;57398;52.032;4.376;2023-02-11T07:12:55;103570.16;;;5.07;nan
70053;BME280;57398;52.032;4.376;2023-02-11T07:15:44;103575.66;;;5.13;nan
70053;BME280;57398;52.032;4.376;2023-02-11T07:18:33;103589.38;;;5.25;nan
70053;BME280;57398;52.032;4.376;2023-02-11T07:21:23;103594.53;;;5.14;nan
70053;BME280;57398;52.032;4.376;2023-02-11T07:24:12;103601.56;;;5.23;nan
70053;BME280;57398;52.032;4.376;2023-02-11T07:29:51;103619.50;;;5.36;nan
70053;BME280;57398;52.032;4.376;2023-02-11T07:32:39;103672.38;;;5.53;nan
70053;BME280;57398;52.032;4.376;2023-02-11T07:46:41;103685.44;;;5.85;nan
70053;BME280;57398;52.032;4.376;2023-02-11T07:52:18;103691.44;;;5.97;nan
70053;BME280;57398;52.032;4.376;2023-02-11T07:55:08;103692.16;;;5.99;nan
70053;BME280;57398;52.032;4.376;2023-02-11T07:57:57;103685.34;;;6.09;nan
70053;BME280;57398;52.032;4.376;2023-02-11T08:00:45;103681.59;;;6.13;nan
70053;BME280;57398;52.032;4.376;2023-02-11T08:03:35;103678.66;;;6.18;nan
70053;BME280;57398;52.032;4.376;2023-02-11T08:06:25;103691.56;;;6.18;nan
70053;BME280;57398;52.032;4.376;2023-02-11T08:09:14;103696.72;;;6.18;nan
70053;BME280;57398;52.032;4.376;2023-02-11T08:12:04;103686.63;;;6.26;nan
70053;BME280;57398;52.032;4.376;2023-02-11T08:14:53;103684.25;;;6.34;nan
70053;BME280;57398;52.032;4.376;2023-02-11T08:17:42;103689.31;;;6.36;nan
70053;BME280;57398;52.032;4.376;2023-02-11T08:20:30;103688.13;;;6.51;nan
70053;BME280;57398;52.032;4.376;2023-02-11T08:23:18;103689.88;;;6.50;nan
70053;BME280;57398;52.032;4.376;2023-02-11T08:28:58;103684.81;;;6.60;nan
70053;BME280;57398;52.032;4.376;2023-02-11T08:31:46;103676.69;;;6.65;nan
70053;BME280;57398;52.032;4.376;2023-02-11T08:34:35;103685.13;;;6.78;nan
70053;BME280;57398;52.032;4.376;2023-02-11T08:37:23;103684.84;;;6.81;nan
70053;BME280;57398;52.032;4.376;2023-02-11T08:40:11;103672.97;;;6.90;nan
70053;BME280;57398;52.032;4.376;2023-02-11T08:43:00;103678.47;;;6.97;nan
70053;BME280;57398;52.032;4.376;2023-02-11T08:45:49;103670.19;;;7.03;nan
70053;BME280;57398;52.032;4.376;2023-02-11T08:48:38;103669.59;;;7.10;nan
70053;BME280;57398;52.032;4.376;2023-02-11T08:51:27;103663.34;;;7.13;nan
70053;BME280;57398;52.032;4.376;2023-02-11T08:57:04;103657.72;;;7.29;nan
70053;BME280;57398;52.032;4.376;2023-02-11T08:59:52;103667.16;;;7.40;nan
70053;BME280;57398;52.032;4.376;2023-02-11T09:05:29;103696.25;;;7.53;nan
70053;BME280;57398;52.032;4.376;2023-02-11T09:08:18;103686.47;;;7.57;nan
70053;BME280;57398;52.032;4.376;2023-02-11T09:13:55;103667.03;;;7.62;nan
70053;BME280;57398;52.032;4.376;2023-02-11T09:16:44;103654.09;;;7.62;nan
70053;BME280;57398;52.032;4.376;2023-02-11T09:19:33;103667.72;;;7.64;nan
70053;BME280;57398;52.032;4.376;2023-02-11T09:22:21;103674.53;;;7.65;nan
70053;BME280;57398;52.032;4.376;2023-02-11T09:25:10;103651.97;;;7.67;nan
70053;BME280;57398;52.032;4.376;2023-02-11T09:27:58;103652.81;;;7.78;nan
70053;BME280;57398;52.032;4.376;2023-02-11T09:30:46;103671.38;;;7.92;nan
70053;BME280;57398;52.032;4.376;2023-02-11T09:33:35;103657.75;;;7.90;nan
70053;BME280;57398;52.032;4.376;2023-02-11T09:36:27;103666.75;;;7.96;nan
70053;BME280;57398;52.032;4.376;2023-02-11T09:39:17;103674.25;;;7.99;nan
70053;BME280;57398;52.032;4.376;2023-02-11T09:42:23;103670.34;;;8.05;nan
70053;BME280;57398;52.032;4.376;2023-02-11T09:45:22;103673.34;;;8.10;nan
70053;BME280;57398;52.032;4.376;2023-02-11T09:48:13;103682.78;;;8.21;nan
70053;BME280;57398;52.032;4.376;2023-02-11T09:51:03;103677.47;;;8.22;nan
70053;BME280;57398;52.032;4.376;2023-02-11T09:53:57;103672.97;;;8.24;nan
70053;BME280;57398;52.032;4.376;2023-02-11T09:56:51;103672.97;;;8.24;nan
70053;BME280;57398;52.032;4.376;2023-02-11T09:59:39;103673.00;;;8.34;nan
70053;BME280;57398;52.032;4.376;2023-02-11T10:02:33;103684.50;;;8.41;nan
70053;BME280;57398;52.032;4.376;2023-02-11T10:05:40;103689.56;;;8.52;nan
70053;BME280;57398;52.032;4.376;2023-02-11T10:08:36;103689.00;;;8.58;nan
70053;BME280;57398;52.032;4.376;2023-02-11T10:11:35;103686.88;;;8.73;nan
70053;BME280;57398;52.032;4.376;2023-02-11T10:14:58;103695.03;;;8.78;nan
70053;BME280;57398;52.032;4.376;2023-02-11T10:18:00;103701.19;;;8.87;nan
70053;BME280;57398;52.032;4.376;2023-02-11T10:21:06;103710.88;;;8.85;nan
70053;BME280;57398;52.032;4.376;2023-02-11T10:24:02;103721.25;;;8.75;nan
70053;BME280;57398;52.032;4.376;2023-02-11T10:26:53;103720.28;;;8.67;nan
70053;BME280;57398;52.032;4.376;2023-02-11T10:29:45;103731.44;;;8.57;nan
70053;BME280;57398;52.032;4.376;2023-02-11T10:32:39;103725.84;;;8.62;nan
70053;BME280;57398;52.032;4.376;2023-02-11T10:35:30;103733.22;;;8.57;nan
70053;BME280;57398;52.032;4.376;2023-02-11T10:38:19;103749.84;;;8.54;nan
70053;BME280;57398;52.032;4.376;2023-02-11T10:41:09;103754.78;;;8.67;nan
70053;BME280;57398;52.032;4.376;2023-02-11T10:44:05;103744.13;;;8.70;nan
70053;BME280;57398;52.032;4.376;2023-02-11T10:46:54;103752.63;;;8.82;nan
70053;BME280;57398;52.032;4.376;2023-02-11T10:49:44;103750.97;;;8.91;nan
70053;BME280;57398;52.032;4.376;2023-02-11T10:52:32;103753.59;;;9.00;nan
70053;BME280;57398;52.032;4.376;2023-02-11T10:55:23;103746.06;;;8.97;nan
70053;BME280;57398;52.032;4.376;2023-02-11T10:58:22;103753.16;;;8.95;nan
70053;BME280;57398;52.032;4.376;2023-02-11T11:01:12;103760.00;;;8.87;nan
70053;BME280;57398;52.032;4.376;2023-02-11T11:07:35;103767.22;;;8.83;nan
70053;BME280;57398;52.032;4.376;2023-02-11T11:10:36;103778.66;;;8.71;nan
70053;BME280;57398;52.032;4.376;2023-02-11T11:16:22;103784.78;;;8.79;nan
70053;BME280;57398;52.032;4.376;2023-02-11T11:22:19;103776.31;;;8.68;nan
70053;BME280;57398;52.032;4.376;2023-02-11T11:31:12;103776.50;;;8.86;nan
70053;BME280;57398;52.032;4.376;2023-02-11T11:34:19;103782.06;;;8.81;nan
70053;BME280;57398;52.032;4.376;2023-02-11T11:37:12;103780.84;;;8.75;nan
70053;BME280;57398;52.032;4.376;2023-02-11T11:40:07;103780.97;;;8.64;nan
70053;BME280;57398;52.032;4.376;2023-02-11T11:43:16;103774.16;;;8.73;nan
70053;BME280;57398;52.032;4.376;2023-02-11T11:46:08;103783.69;;;8.72;nan
70053;BME280;57398;52.032;4.376;2023-02-11T11:49:06;103787.66;;;8.67;nan
70053;BME280;57398;52.032;4.376;2023-02-11T11:52:15;103797.22;;;8.76;nan
70053;BME280;57398;52.032;4.376;2023-02-11T11:57:59;103784.13;;;8.77;nan
70053;BME280;57398;52.032;4.376;2023-02-11T12:00:53;103772.22;;;8.75;nan
70053;BME280;57398;52.032;4.376;2023-02-11T12:04:07;103771.31;;;8.86;nan
70053;BME280;57398;52.032;4.376;2023-02-11T12:07:10;103777.63;;;9.02;nan
70053;BME280;57398;52.032;4.376;2023-02-11T12:10:20;103779.78;;;8.97;nan
70053;BME280;57398;52.032;4.376;2023-02-11T12:13:20;103779.38;;;9.02;nan
70053;BME280;57398;52.032;4.376;2023-02-11T12:16:18;103785.75;;;8.78;nan
70053;BME280;57398;52.032;4.376;2023-02-11T12:22:11;103792.72;;;8.78;nan
70053;BME280;57398;52.032;4.376;2023-02-11T12:25:19;103782.63;;;8.85;nan
70053;BME280;57398;52.032;4.376;2023-02-11T12:28:19;103790.00;;;8.89;nan
70053;BME280;57398;52.032;4.376;2023-02-11T12:31:24;103795.72;;;8.93;nan
70053;BME280;57398;52.032;4.376;2023-02-11T12:34:38;103796.00;;;8.90;nan
70053;BME280;57398;52.032;4.376;2023-02-11T12:37:38;103790.25;;;8.86;nan
70053;BME280;57398;52.032;4.376;2023-02-11T12:40:37;103780.47;;;8.90;nan
70053;BME280;57398;52.032;4.376;2023-02-11T12:43:31;103781.31;;;9.10;nan
70053;BME280;57398;52.032;4.376;2023-02-11T12:46:33;103784.84;;;9.09;nan
70053;BME280;57398;52.032;4.376;2023-02-11T12:49:36;103772.97;;;9.06;nan
70053;BME280;57398;52.032;4.376;2023-02-11T12:52:56;103770.94;;;9.19;nan
70053;BME280;57398;52.032;4.376;2023-02-11T12:55:53;103785.13;;;9.35;nan
70053;BME280;57398;52.032;4.376;2023-02-11T12:58:45;103776.63;;;9.23;nan
70053;BME280;57398;52.032;4.376;2023-02-11T13:01:38;103772.28;;;9.33;nan
70053;BME280;57398;52.032;4.376;2023-02-11T13:04:34;103776.22;;;9.28;nan
70053;BME280;57398;52.032;4.376;2023-02-11T13:07:28;103773.50;;;9.29;nan
70053;BME280;57398;52.032;4.376;2023-02-11T13:10:26;103778.56;;;9.40;nan
70053;BME280;57398;52.032;4.376;2023-02-11T13:13:20;103771.75;;;9.20;nan
70053;BME280;57398;52.032;4.376;2023-02-11T13:19:16;103765.31;;;9.24;nan
70053;BME280;57398;52.032;4.376;2023-02-11T13:22:10;103776.38;;;9.26;nan
70053;BME280;57398;52.032;4.376;2023-02-11T13:25:05;103771.72;;;9.30;nan
70053;BME280;57398;52.032;4.376;2023-02-11T13:33:38;103769.69;;;9.14;nan
70053;BME280;57398;52.032;4.376;2023-02-11T13:36:29;103758.66;;;9.12;nan
70053;BME280;57398;52.032;4.376;2023-02-11T13:39:21;103761.50;;;9.28;nan
70053;BME280;57398;52.032;4.376;2023-02-11T13:42:14;103765.75;;;9.19;nan
70053;BME280;57398;52.032;4.376;2023-02-11T13:45:16;103766.13;;;9.34;nan
70053;BME280;57398;52.032;4.376;2023-02-11T13:50:57;103765.59;;;9.11;nan
70053;BME280;57398;52.032;4.376;2023-02-11T13:53:49;103749.91;;;9.13;nan
70053;BME280;57398;52.032;4.376;2023-02-11T13:56:40;103753.88;;;9.07;nan
70053;BME280;57398;52.032;4.376;2023-02-11T14:02:35;103749.75;;;8.95;nan
70053;BME280;57398;52.032;4.376;2023-02-11T14:06:09;103745.81;;;9.10;nan
70053;BME280;57398;52.032;4.376;2023-02-11T14:09:38;103754.81;;;9.16;nan
70053;BME280;57398;52.032;4.376;2023-02-11T14:12:33;103763.00;;;9.31;nan
70053;BME280;57398;52.032;4.376;2023-02-11T14:15:25;103757.81;;;9.31;nan
70053;BME280;57398;52.032;4.376;2023-02-11T14:18:37;103760.66;;;9.28;nan
70053;BME280;57398;52.032;4.376;2023-02-11T14:21:36;103760.56;;;9.10;nan
70053;BME280;57398;52.032;4.376;2023-02-11T14:24:50;103756.19;;;9.10;nan
70053;BME280;57398;52.032;4.376;2023-02-11T14:27:42;103769.28;;;9.28;nan
70053;BME280;57398;52.032;4.376;2023-02-11T14:30:38;103765.19;;;9.06;nan
70053;BME280;57398;52.032;4.376;2023-02-11T14:36:46;103757.81;;;9.01;nan
70053;BME280;57398;52.032;4.376;2023-02-11T14:42:35;103761.34;;;8.91;nan
70053;BME280;57398;52.032;4.376;2023-02-11T14:45:27;103759.16;;;8.86;nan
70053;BME280;57398;52.032;4.376;2023-02-11T14:48:18;103757.25;;;8.78;nan
70053;BME280;57398;52.032;4.376;2023-02-11T14:51:09;103763.00;;;8.82;nan
70053;BME280;57398;52.032;4.376;2023-02-11T14:54:02;103769.28;;;8.89;nan
70053;BME280;57398;52.032;4.376;2023-02-11T14:59:58;103776.88;;;8.81;nan
70053;BME280;57398;52.032;4.376;2023-02-11T15:02:49;103772.28;;;8.94;nan
70053;BME280;57398;52.032;4.376;2023-02-11T15:05:39;103784.13;;;8.87;nan
70053;BME280;57398;52.032;4.376;2023-02-11T15:08:28;103795.03;;;8.81;nan
70053;BME280;57398;52.032;4.376;2023-02-11T15:11:19;103779.34;;;8.73;nan
70053;BME280;57398;52.032;4.376;2023-02-11T15:14:10;103779.47;;;8.71;nan
70053;BME280;57398;52.032;4.376;2023-02-11T15:19:54;103791.47;;;8.72;nan
70053;BME280;57398;52.032;4.376;2023-02-11T15:22:44;103794.75;;;8.74;nan
70053;BME280;57398;52.032;4.376;2023-02-11T15:25:33;103790.22;;;8.67;nan
70053;BME280;57398;52.032;4.376;2023-02-11T15:28:23;103796.91;;;8.59;nan
70053;BME280;57398;52.032;4.376;2023-02-11T15:31:15;103780.38;;;8.60;nan
70053;BME280;57398;52.032;4.376;2023-02-11T15:34:07;103794.84;;;8.53;nan
70053;BME280;57398;52.032;4.376;2023-02-11T15:54:18;103788.88;;;8.32;nan
70053;BME280;57398;52.032;4.376;2023-02-11T15:59:56;103790.59;;;8.22;nan
70053;BME280;57398;52.032;4.376;2023-02-11T16:02:50;103789.50;;;8.24;nan
70053;BME280;57398;52.032;4.376;2023-02-11T16:05:39;103776.88;;;8.00;nan
70053;BME280;57398;52.032;4.376;2023-02-11T16:08:28;103812.38;;;8.19;nan
70053;BME280;57398;52.032;4.376;2023-02-11T16:11:24;103801.72;;;8.12;nan
70053;BME280;57398;52.032;4.376;2023-02-11T16:17:09;103812.34;;;8.09;nan
70053;BME280;57398;52.032;4.376;2023-02-11T16:19:58;103812.72;;;8.05;nan
70053;BME280;57398;52.032;4.376;2023-02-11T16:22:47;103811.44;;;7.99;nan
70053;BME280;57398;52.032;4.376;2023-02-11T16:25:36;103819.38;;;7.97;nan
70053;BME280;57398;52.032;4.376;2023-02-11T16:31:14;103818.09;;;7.92;nan
70053;BME280;57398;52.032;4.376;2023-02-11T16:34:09;103827.38;;;7.94;nan
70053;BME280;57398;52.032;4.376;2023-02-11T16:37:02;103830.09;;;7.93;nan
70053;BME280;57398;52.032;4.376;2023-02-11T16:39:52;103838.78;;;7.92;nan
70053;BME280;57398;52.032;4.376;2023-02-11T16:42:40;103840.84;;;7.88;nan
70053;BME280;57398;52.032;4.376;2023-02-11T16:45:30;103839.44;;;7.84;nan
70053;BME280;57398;52.032;4.376;2023-02-11T16:48:19;103845.44;;;7.85;nan
70053;BME280;57398;52.032;4.376;2023-02-11T16:53:57;103842.50;;;7.78;nan
70053;BME280;57398;52.032;4.376;2023-02-11T16:56:47;103849.22;;;7.81;nan
70053;BME280;57398;52.032;4.376;2023-02-11T16:59:36;103853.00;;;7.76;nan
70053;BME280;57398;52.032;4.376;2023-02-11T17:02:27;103860.31;;;7.71;nan
70053;BME280;57398;52.032;4.376;2023-02-11T17:08:06;103859.16;;;7.64;nan
70053;BME280;57398;52.032;4.376;2023-02-11T17:10:54;103866.94;;;7.64;nan
70053;BME280;57398;52.032;4.376;2023-02-11T17:16:30;103881.97;;;7.70;nan
70053;BME280;57398;52.032;4.376;2023-02-11T17:19:19;103873.25;;;7.71;nan
70053;BME280;57398;52.032;4.376;2023-02-11T17:22:09;103882.03;;;7.80;nan
70053;BME280;57398;52.032;4.376;2023-02-11T17:24:58;103872.69;;;7.68;nan
70053;BME280;57398;52.032;4.376;2023-02-11T17:27:46;103863.41;;;7.65;nan
70053;BME280;57398;52.032;4.376;2023-02-11T17:30:38;103857.75;;;7.60;nan
70053;BME280;57398;52.032;4.376;2023-02-11T17:33:27;103871.19;;;7.65;nan
70053;BME280;57398;52.032;4.376;2023-02-11T17:36:16;103869.41;;;7.66;nan
70053;BME280;57398;52.032;4.376;2023-02-11T17:39:05;103869.28;;;7.67;nan
70053;BME280;57398;52.032;4.376;2023-02-11T17:41:54;103874.25;;;7.59;nan
70053;BME280;57398;52.032;4.376;2023-02-11T17:44:42;103874.25;;;7.59;nan
70053;BME280;57398;52.032;4.376;2023-02-11T17:50:19;103883.44;;;7.52;nan
70053;BME280;57398;52.032;4.376;2023-02-11T17:53:08;103880.03;;;7.51;nan
70053;BME280;57398;52.032;4.376;2023-02-11T17:55:57;103881.09;;;7.49;nan
70053;BME280;57398;52.032;4.376;2023-02-11T17:58:45;103885.31;;;7.50;nan
70053;BME280;57398;52.032;4.376;2023-02-11T18:01:35;103895.78;;;7.48;nan
70053;BME280;57398;52.032;4.376;2023-02-11T18:04:23;103885.22;;;7.51;nan
70053;BME280;57398;52.032;4.376;2023-02-11T18:07:12;103888.94;;;7.59;nan
70053;BME280;57398;52.032;4.376;2023-02-11T18:10:01;103894.72;;;7.51;nan
70053;BME280;57398;52.032;4.376;2023-02-11T18:18:27;103905.56;;;7.45;nan
70053;BME280;57398;52.032;4.376;2023-02-11T18:21:19;103910.97;;;7.42;nan
70053;BME280;57398;52.032;4.376;2023-02-11T18:24:07;103906.06;;;7.39;nan
70053;BME280;57398;52.032;4.376;2023-02-11T18:26:57;103915.91;;;7.45;nan
70053;BME280;57398;52.032;4.376;2023-02-11T18:29:45;103906.88;;;7.39;nan
70053;BME280;57398;52.032;4.376;2023-02-11T18:32:34;103919.94;;;7.38;nan
70053;BME280;57398;52.032;4.376;2023-02-11T18:35:22;103926.47;;;7.42;nan
70053;BME280;57398;52.032;4.376;2023-02-11T18:38:10;103927.81;;;7.36;nan
70053;BME280;57398;52.032;4.376;2023-02-11T18:40:59;103924.50;;;7.34;nan
70053;BME280;57398;52.032;4.376;2023-02-11T18:43:48;103923.44;;;7.37;nan
70053;BME280;57398;52.032;4.376;2023-02-11T18:46:36;103915.50;;;7.28;nan
70053;BME280;57398;52.032;4.376;2023-02-11T18:49:24;103925.84;;;7.28;nan
70053;BME280;57398;52.032;4.376;2023-02-11T18:52:12;103922.75;;;7.23;nan
70053;BME280;57398;52.032;4.376;2023-02-11T18:55:00;103913.56;;;7.30;nan
70053;BME280;57398;52.032;4.376;2023-02-11T18:57:49;103928.63;;;7.37;nan
70053;BME280;57398;52.032;4.376;2023-02-11T19:03:28;103919.59;;;7.31;nan
70053;BME280;57398;52.032;4.376;2023-02-11T19:06:18;103922.28;;;7.29;nan
70053;BME280;57398;52.032;4.376;2023-02-11T19:09:08;103929.34;;;7.27;nan
70053;BME280;57398;52.032;4.376;2023-02-11T19:11:57;103928.63;;;7.25;nan
70053;BME280;57398;52.032;4.376;2023-02-11T19:14:46;103930.50;;;7.34;nan
70053;BME280;57398;52.032;4.376;2023-02-11T19:17:36;103920.88;;;7.25;nan
70053;BME280;57398;52.032;4.376;2023-02-11T19:23:12;103930.75;;;7.31;nan
70053;BME280;57398;52.032;4.376;2023-02-11T19:26:00;103932.63;;;7.29;nan
70053;BME280;57398;52.032;4.376;2023-02-11T19:28:50;103928.53;;;7.27;nan
70053;BME280;57398;52.032;4.376;2023-02-11T19:31:38;103927.22;;;7.32;nan
70053;BME280;57398;52.032;4.376;2023-02-11T19:34:28;103897.97;;;7.09;nan
70053;BME280;57398;52.032;4.376;2023-02-11T19:37:16;103933.09;;;7.23;nan
70053;BME280;57398;52.032;4.376;2023-02-11T19:40:06;103922.06;;;7.21;nan
70053;BME280;57398;52.032;4.376;2023-02-11T19:45:42;103933.59;;;7.17;nan
70053;BME280;57398;52.032;4.376;2023-02-11T19:48:30;103936.66;;;7.22;nan
70053;BME280;57398;52.032;4.376;2023-02-11T19:51:20;103943.44;;;7.23;nan
70053;BME280;57398;52.032;4.376;2023-02-11T19:54:08;103943.59;;;7.22;nan
70053;BME280;57398;52.032;4.376;2023-02-11T19:59:45;103938.41;;;7.10;nan
70053;BME280;57398;52.032;4.376;2023-02-11T20:02:33;103952.16;;;7.11;nan